Terminal Aerodrome Forecast
Issued by NWS

Home | Current Version | Previous Version | Graphics & Text | Print | Product List | Glossary On
Versions: 1 2 3 4 5 6 7 8 9 10 11 12 13 14 15
000
FTUS42 KMHX 251700
TAFPGV
TAF
KPGV 251723Z 2518/2618 26003KT P6SM -RA BKN007 OVC040
     FM252200 34007KT 4SM -RA BR OVC030
     FM260600 01008G15KT 4SM -RA OVC020
     FM261600 33010G15KT P6SM VCSH OVC040
      AMD LTD TO CLD VIS AND WIND=

USA.gov is the U.S. government's official web portal to all federal, state and local government web resources and services.